createdAt,value
2018-09-08T00:01:44.506Z,10.63
2018-09-08T00:04:13.366Z,10.80
2018-09-08T00:06:42.238Z,10.77
2018-09-08T00:09:11.132Z,11.70
2018-09-08T00:11:39.990Z,11.00
2018-09-08T00:14:08.862Z,11.03
2018-09-08T00:16:42.787Z,11.33
2018-09-08T00:19:16.699Z,11.00
2018-09-08T00:21:50.636Z,11.87
2018-09-08T00:24:24.735Z,10.80
2018-09-08T00:26:52.583Z,11.43
2018-09-08T00:29:30.534Z,12.60
2018-09-08T00:31:59.855Z,12.37
2018-09-08T00:34:28.771Z,12.00
2018-09-08T00:36:57.610Z,11.37
2018-09-08T00:39:26.528Z,11.17
2018-09-08T00:41:55.385Z,10.90
2018-09-08T00:44:24.301Z,10.40
2018-09-08T00:46:53.219Z,10.47
2018-09-08T00:49:22.131Z,11.87
2018-09-08T00:51:51.088Z,10.43
2018-09-08T00:54:20.067Z,10.63
2018-09-08T00:56:49.118Z,10.83
2018-09-08T00:59:18.104Z,10.63
2018-09-08T01:01:47.081Z,11.50
2018-09-08T01:04:16.021Z,11.63
2018-09-08T01:06:45.015Z,11.13
2018-09-08T01:09:14.022Z,10.57
2018-09-08T01:11:42.937Z,11.43
2018-09-08T01:14:11.954Z,11.70
2018-09-08T01:16:40.867Z,11.07
2018-09-08T01:19:09.984Z,11.00
2018-09-08T01:21:39.069Z,12.30
2018-09-08T01:24:08.001Z,11.53
2018-09-08T01:26:36.916Z,11.60
2018-09-08T01:29:06.040Z,10.93
2018-09-08T01:31:35.021Z,11.57
2018-09-08T01:34:04.142Z,11.63
2018-09-08T01:36:33.219Z,12.50
2018-09-08T01:39:02.141Z,11.17
2018-09-08T01:41:31.071Z,11.97
2018-09-08T01:44:00.061Z,12.10
2018-09-08T01:46:29.025Z,12.10
2018-09-08T01:48:57.936Z,11.87
2018-09-08T01:51:27.001Z,11.47
2018-09-08T01:53:56.073Z,11.43
2018-09-08T01:56:25.042Z,12.00
2018-09-08T01:58:53.973Z,11.87
2018-09-08T02:01:22.943Z,11.90
2018-09-08T02:03:51.859Z,11.83
2018-09-08T02:06:20.776Z,11.90
2018-09-08T02:08:49.895Z,11.60
2018-09-08T02:11:18.946Z,11.30
2018-09-08T02:13:47.914Z,10.97
2018-09-08T02:16:16.923Z,11.70
2018-09-08T02:18:46.059Z,12.30
2018-09-08T02:21:15.133Z,11.67
2018-09-08T02:23:44.065Z,11.43
2018-09-08T02:26:12.965Z,12.10
2018-09-08T02:28:41.964Z,12.13
2018-09-08T02:31:10.948Z,12.57
2018-09-08T02:33:39.849Z,11.90
2018-09-08T02:36:08.799Z,11.93
2018-09-08T02:38:37.781Z,11.87
2018-09-08T02:41:05.634Z,12.63
2018-09-08T02:43:34.563Z,12.20
2018-09-08T02:46:03.585Z,12.53
2018-09-08T02:48:32.608Z,13.57
2018-09-08T02:51:00.076Z,12.80
2018-09-08T02:53:27.570Z,13.03
2018-09-08T02:55:55.036Z,12.80
2018-09-08T02:58:22.557Z,12.60
2018-09-08T03:00:50.285Z,18.43
2018-09-08T03:03:17.761Z,14.07
2018-09-08T03:05:45.239Z,13.37
2018-09-08T03:08:12.704Z,12.57
2018-09-08T03:10:40.177Z,12.50
2018-09-08T03:13:07.704Z,12.53
2018-09-08T03:15:35.302Z,13.13
2018-09-08T03:18:02.764Z,13.00
2018-09-08T03:20:30.318Z,12.23
2018-09-08T03:22:57.781Z,13.63
2018-09-08T03:25:25.236Z,12.83
2018-09-08T03:27:52.707Z,12.57
2018-09-08T03:30:20.289Z,12.97
2018-09-08T03:32:47.826Z,12.20
2018-09-08T03:35:15.308Z,13.17
2018-09-08T03:37:42.877Z,13.13
2018-09-08T03:40:10.436Z,13.03
2018-09-08T03:42:37.914Z,13.10
2018-09-08T03:45:05.457Z,13.63
2018-09-08T03:47:32.984Z,14.63
2018-09-08T03:50:00.503Z,12.97
2018-09-08T03:52:27.972Z,13.97
2018-09-08T03:54:55.441Z,14.70
2018-09-08T03:57:22.941Z,12.83
2018-09-08T03:59:50.965Z,13.67
2018-09-08T04:02:18.502Z,13.60
2018-09-08T04:04:47.480Z,13.50
2018-09-08T04:07:16.605Z,14.47
2018-09-08T04:09:45.572Z,13.27
2018-09-08T04:12:14.492Z,13.33
2018-09-08T04:14:43.452Z,13.53
2018-09-08T04:17:12.453Z,15.20
2018-09-08T04:19:41.396Z,13.63
2018-09-08T04:22:10.324Z,14.00
2018-09-08T04:24:39.311Z,14.07
2018-09-08T04:27:08.305Z,14.73
2018-09-08T04:29:37.314Z,14.70
2018-09-08T04:32:06.352Z,15.30
2018-09-08T04:34:35.260Z,15.43
2018-09-08T04:37:05.033Z,15.00
2018-09-08T04:39:34.040Z,14.60
2018-09-08T04:42:03.094Z,15.90
2018-09-08T04:44:31.989Z,16.63
2018-09-08T04:47:00.976Z,15.07
2018-09-08T04:49:29.907Z,14.83
2018-09-08T04:51:58.852Z,15.37
2018-09-08T04:54:27.837Z,15.73
2018-09-08T04:56:56.739Z,15.57
2018-09-08T04:59:25.784Z,15.77
2018-09-08T05:01:54.716Z,15.20
2018-09-08T05:04:23.652Z,14.50
2018-09-08T05:06:52.753Z,15.27
2018-09-08T05:09:21.655Z,15.97
2018-09-08T05:11:50.645Z,15.37
2018-09-08T05:14:19.620Z,15.37
2018-09-08T05:16:48.656Z,16.73
2018-09-08T05:19:17.612Z,16.43
2018-09-08T05:21:46.526Z,15.40
2018-09-08T05:24:15.478Z,16.60
2018-09-08T05:26:44.436Z,15.87
2018-09-08T05:29:13.351Z,17.33
2018-09-08T05:31:42.261Z,17.57
2018-09-08T05:34:11.380Z,17.63
2018-09-08T05:36:40.343Z,19.03
2018-09-08T05:39:09.287Z,18.70
2018-09-08T05:41:38.276Z,19.07
2018-09-08T05:44:07.304Z,19.03
2018-09-08T05:46:36.236Z,19.67
2018-09-08T05:49:05.156Z,19.13
2018-09-08T05:51:34.119Z,19.87
2018-09-08T05:54:03.082Z,19.33
2018-09-08T05:56:32.007Z,17.57
2018-09-08T05:59:00.947Z,17.80
2018-09-08T06:01:29.868Z,18.37
2018-09-08T06:03:58.909Z,17.60
2018-09-08T06:06:27.882Z,18.53
2018-09-08T06:08:56.929Z,18.57
2018-09-08T06:11:25.851Z,17.87
2018-09-08T06:13:54.918Z,17.60
2018-09-08T06:16:23.833Z,17.57
2018-09-08T06:18:52.751Z,18.07
2018-09-08T06:21:21.736Z,17.20
2018-09-08T06:23:50.715Z,16.17
2018-09-08T06:26:19.755Z,16.37
2018-09-08T06:28:48.684Z,15.63
2018-09-08T06:31:17.720Z,15.07
2018-09-08T06:33:46.741Z,15.67
2018-09-08T06:36:15.644Z,15.73
2018-09-08T06:38:44.635Z,14.83
2018-09-08T06:41:13.595Z,15.40
2018-09-08T06:43:42.580Z,16.27
2018-09-08T06:46:11.571Z,15.43
2018-09-08T06:48:40.492Z,16.17
2018-09-08T06:51:09.431Z,16.10
2018-09-08T06:53:38.492Z,17.10
2018-09-08T06:56:07.752Z,15.90
2018-09-08T06:58:36.668Z,16.47
2018-09-08T07:01:05.668Z,16.40
2018-09-08T07:03:34.689Z,16.83
2018-09-08T07:06:03.694Z,15.57
2018-09-08T07:08:32.623Z,16.87
2018-09-08T07:11:01.536Z,17.97
2018-09-08T07:13:30.704Z,114.30
2018-09-08T07:15:59.700Z,22.80
2018-09-08T07:18:28.700Z,22.83
2018-09-08T07:20:57.627Z,59.27
2018-09-08T07:23:26.606Z,32.33
2018-09-08T07:25:55.756Z,24.57
2018-09-08T07:28:24.682Z,31.53
2018-09-08T07:30:53.715Z,15.70
2018-09-08T07:33:22.621Z,19.57
2018-09-08T07:35:51.690Z,22.63
2018-09-08T07:38:20.644Z,18.70
2018-09-08T07:40:49.570Z,16.97
2018-09-08T07:43:18.520Z,15.83
2018-09-08T07:45:47.644Z,16.63
2018-09-08T07:48:16.952Z,16.50
2018-09-08T07:50:45.949Z,14.37
2018-09-08T07:53:15.076Z,14.40
2018-09-08T07:55:44.019Z,13.97
2018-09-08T07:58:12.988Z,14.77
2018-09-08T08:00:41.940Z,15.33
2018-09-08T08:03:10.847Z,14.90
2018-09-08T08:05:39.770Z,14.90
2018-09-08T08:08:08.743Z,15.07
2018-09-08T08:10:37.787Z,15.40
2018-09-08T08:13:06.761Z,13.97
2018-09-08T08:15:35.663Z,14.73
2018-09-08T08:18:04.640Z,14.30
2018-09-08T08:20:33.565Z,16.40
2018-09-08T08:23:02.515Z,14.13
2018-09-08T08:25:31.416Z,14.40
2018-09-08T08:28:00.493Z,14.33
2018-09-08T08:30:29.517Z,14.47
2018-09-08T08:32:58.476Z,14.47
2018-09-08T08:35:27.484Z,14.53
2018-09-08T08:37:56.415Z,13.83
2018-09-08T08:40:25.481Z,13.97
2018-09-08T08:42:54.688Z,13.83
2018-09-08T08:45:23.686Z,11.50
2018-09-08T08:47:52.759Z,12.47
2018-09-08T08:50:32.622Z,12.77
2018-09-08T08:53:12.469Z,11.70
2018-09-08T08:55:41.478Z,12.30
2018-09-08T08:58:10.481Z,12.27
2018-09-08T09:00:39.399Z,11.70
2018-09-08T09:03:08.429Z,10.43
2018-09-08T09:05:37.391Z,10.90
2018-09-08T09:08:06.433Z,10.90
2018-09-08T09:10:35.526Z,11.30
2018-09-08T09:13:04.508Z,10.50
2018-09-08T09:15:33.714Z,11.10
2018-09-08T09:18:02.368Z,12.10
2018-09-08T09:20:42.244Z,10.73
2018-09-08T09:24:20.333Z,12.90
2018-09-08T09:26:48.897Z,10.70
2018-09-08T09:29:17.884Z,12.13
2018-09-08T09:31:47.039Z,8.93
2018-09-08T09:34:15.979Z,11.33
2018-09-08T09:36:44.917Z,10.30
2018-09-08T09:39:13.839Z,10.10
2018-09-08T09:41:43.221Z,9.70
2018-09-08T09:44:12.585Z,10.67
2018-09-08T09:46:42.212Z,10.47
2018-09-08T09:49:11.146Z,11.47
2018-09-08T09:51:40.052Z,10.57
2018-09-08T09:54:09.017Z,11.13
2018-09-08T09:56:38.103Z,10.70
2018-09-08T09:59:07.117Z,10.50
2018-09-08T10:01:41.150Z,10.60
2018-09-08T10:04:10.197Z,9.77
2018-09-08T10:06:39.304Z,10.83
2018-09-08T10:09:09.265Z,9.97
2018-09-08T10:11:38.200Z,9.00
2018-09-08T10:14:07.626Z,10.20
2018-09-08T10:16:36.580Z,10.30
2018-09-08T10:19:06.148Z,11.17
2018-09-08T10:21:35.221Z,9.67
2018-09-08T10:24:05.155Z,10.03
2018-09-08T10:26:33.274Z,9.80
2018-09-08T10:29:02.328Z,8.87
2018-09-08T10:31:31.391Z,8.07
2018-09-08T10:34:00.411Z,15.30
2018-09-08T10:36:29.388Z,14.23
2018-09-08T10:38:58.495Z,13.93
2018-09-08T10:41:28.596Z,12.80
2018-09-08T10:43:57.618Z,19.00
2018-09-08T10:46:27.662Z,12.20
2018-09-08T10:48:56.629Z,27.47
2018-09-08T10:51:42.251Z,10.33
2018-09-08T10:54:11.152Z,12.47
2018-09-08T10:56:40.224Z,14.33
2018-09-08T10:59:09.504Z,12.73
2018-09-08T11:01:38.675Z,13.87
2018-09-08T11:04:07.988Z,14.03
2018-09-08T11:06:37.116Z,12.93
2018-09-08T11:09:06.981Z,15.83
2018-09-08T11:11:35.932Z,80.70
2018-09-08T11:14:04.965Z,14.60
2018-09-08T11:16:34.055Z,31.83
2018-09-08T11:19:03.073Z,36.77
2018-09-08T11:21:31.999Z,14.07
2018-09-08T11:24:00.984Z,9.20
2018-09-08T11:26:29.907Z,9.60
2018-09-08T11:28:58.872Z,11.40
2018-09-08T11:31:27.885Z,14.50
2018-09-08T11:33:56.800Z,8.80
2018-09-08T11:36:25.741Z,19.33
2018-09-08T11:38:54.712Z,9.67
2018-09-08T11:41:23.653Z,17.87
2018-09-08T11:43:52.676Z,13.77
2018-09-08T11:46:21.594Z,45.20
2018-09-08T11:48:50.612Z,52.23
2018-09-08T11:51:19.640Z,23.17
2018-09-08T11:53:48.544Z,10.90
2018-09-08T11:56:17.539Z,9.27
2018-09-08T11:58:46.552Z,20.10
2018-09-08T12:01:15.568Z,14.20
2018-09-08T12:03:44.512Z,18.63
2018-09-08T12:06:13.617Z,10.83
2018-09-08T12:08:42.613Z,10.57
2018-09-08T12:11:11.619Z,10.10
2018-09-08T12:13:40.708Z,10.33
2018-09-08T12:16:09.757Z,11.73
2018-09-08T12:18:38.688Z,10.20
2018-09-08T12:21:07.640Z,10.03
2018-09-08T12:23:36.656Z,9.07
2018-09-08T12:26:05.653Z,10.37
2018-09-08T12:28:34.632Z,14.17
2018-09-08T12:31:03.749Z,10.53
2018-09-08T12:33:32.652Z,197.63
2018-09-08T12:36:01.876Z,43.80
2018-09-08T12:38:30.886Z,32.00
2018-09-08T12:40:59.824Z,21.53
2018-09-08T12:43:28.874Z,23.63
2018-09-08T12:45:58.060Z,23.63
2018-09-08T12:48:27.008Z,17.47
2018-09-08T12:50:55.948Z,41.97
2018-09-08T12:53:24.934Z,62.33
2018-09-08T12:55:53.895Z,30.67
2018-09-08T12:58:22.863Z,15.93
2018-09-08T13:00:51.920Z,10.03
2018-09-08T13:03:20.956Z,25.03
2018-09-08T13:05:49.884Z,27.67
2018-09-08T13:08:18.869Z,22.03
2018-09-08T13:10:47.917Z,55.93
2018-09-08T13:13:16.880Z,35.67
2018-09-08T13:15:45.828Z,33.53
2018-09-08T13:18:14.759Z,36.23
2018-09-08T13:20:43.776Z,32.13
2018-09-08T13:23:12.760Z,28.87
2018-09-08T13:25:41.792Z,42.77
2018-09-08T13:28:10.825Z,20.23
2018-09-08T13:30:39.747Z,10.83
2018-09-08T13:33:09.128Z,13.07
2018-09-08T13:35:38.039Z,10.60
2018-09-08T13:38:07.084Z,28.80
2018-09-08T13:40:36.022Z,47.57
2018-09-08T13:43:04.980Z,46.67
2018-09-08T13:45:33.930Z,17.80
2018-09-08T13:48:04.085Z,43.80
2018-09-08T13:50:33.044Z,16.80
2018-09-08T13:53:02.076Z,66.97
2018-09-08T13:55:31.133Z,24.93
2018-09-08T13:58:00.118Z,65.53
2018-09-08T14:00:29.125Z,151.83
2018-09-08T14:02:58.080Z,38.93
2018-09-08T14:05:26.971Z,83.93
2018-09-08T14:07:58.145Z,27.37
2018-09-08T14:10:27.177Z,12.37
2018-09-08T14:12:56.268Z,126.57
2018-09-08T14:15:25.215Z,139.30
2018-09-08T14:17:54.181Z,185.47
2018-09-08T14:20:23.252Z,149.17
2018-09-08T14:22:52.240Z,199.33
2018-09-08T14:25:21.167Z,84.90
2018-09-08T14:27:50.090Z,178.97
2018-09-08T14:30:19.202Z,189.17
2018-09-08T14:32:48.108Z,170.07
2018-09-08T14:35:17.033Z,25.67
2018-09-08T14:37:46.040Z,86.07
2018-09-08T14:40:15.133Z,95.43
2018-09-08T14:42:44.070Z,16.23
2018-09-08T14:45:13.097Z,19.07
2018-09-08T14:47:42.597Z,121.30
2018-09-08T14:50:12.147Z,83.97
2018-09-08T14:52:41.161Z,77.93
2018-09-08T14:55:10.224Z,89.83
2018-09-08T14:57:39.584Z,94.23
2018-09-08T15:00:08.637Z,58.13
2018-09-08T15:02:37.690Z,61.30
2018-09-08T15:05:07.298Z,36.83
2018-09-08T15:07:37.062Z,42.80
2018-09-08T15:10:06.497Z,54.17
2018-09-08T15:12:35.573Z,20.20
2018-09-08T15:15:04.547Z,57.40
2018-09-08T15:17:33.577Z,31.30
2018-09-08T15:20:02.756Z,28.00
2018-09-08T15:22:31.821Z,47.60
2018-09-08T15:25:01.138Z,63.57
2018-09-08T15:27:30.069Z,72.23
2018-09-08T15:29:59.206Z,89.10
2018-09-08T15:32:28.224Z,112.63
2018-09-08T15:34:57.190Z,83.20
2018-09-08T15:37:26.224Z,60.37
2018-09-08T15:39:55.156Z,48.10
2018-09-08T15:42:24.092Z,71.87
2018-09-08T15:44:53.015Z,47.03
2018-09-08T15:47:21.965Z,36.70
2018-09-08T15:49:50.886Z,26.63
2018-09-08T15:52:19.985Z,22.67
2018-09-08T15:54:48.916Z,20.00
2018-09-08T15:57:17.832Z,18.57
2018-09-08T15:59:46.749Z,16.13
2018-09-08T16:02:15.738Z,12.13
2018-09-08T16:04:44.781Z,11.17
2018-09-08T16:07:13.679Z,18.77
2018-09-08T16:09:42.740Z,24.73
2018-09-08T16:12:11.628Z,20.60
2018-09-08T16:14:40.516Z,43.13
2018-09-08T16:17:09.632Z,15.63
2018-09-08T16:19:38.848Z,65.30
2018-09-08T16:22:07.910Z,60.43
2018-09-08T16:24:36.933Z,101.23
2018-09-08T16:27:06.062Z,109.53
2018-09-08T16:29:35.088Z,198.03
2018-09-08T16:32:04.049Z,257.73
2018-09-08T16:34:33.232Z,161.90
2018-09-08T16:37:02.195Z,424.70
2018-09-08T16:39:31.148Z,415.50
2018-09-08T16:42:00.087Z,158.60
2018-09-08T16:44:29.168Z,170.53
2018-09-08T16:46:58.121Z,147.37
2018-09-08T16:49:27.184Z,88.47
2018-09-08T16:51:57.774Z,122.60
2018-09-08T16:54:26.789Z,66.37
2018-09-08T16:56:55.845Z,21.07
2018-09-08T16:59:24.983Z,18.80
2018-09-08T17:01:54.003Z,482.13
2018-09-08T17:04:23.071Z,176.20
2018-09-08T17:06:52.411Z,59.03
2018-09-08T17:09:21.432Z,158.87
2018-09-08T17:11:50.424Z,316.90
2018-09-08T17:14:19.400Z,206.17
2018-09-08T17:16:48.353Z,127.67
2018-09-08T17:19:17.420Z,129.97
2018-09-08T17:21:46.464Z,14.37
2018-09-08T17:24:15.533Z,21.30
2018-09-08T17:26:44.549Z,20.27
2018-09-08T17:29:13.504Z,15.50
2018-09-08T17:31:42.456Z,16.10
2018-09-08T17:34:11.510Z,19.90
2018-09-08T17:36:40.516Z,21.20
2018-09-08T17:39:11.837Z,18.77
2018-09-08T17:41:40.857Z,19.50
2018-09-08T17:44:10.213Z,17.83
2018-09-08T17:46:39.563Z,19.73
2018-09-08T17:49:08.519Z,13.33
2018-09-08T17:51:37.465Z,12.40
2018-09-08T17:54:06.725Z,13.90
2018-09-08T17:56:35.808Z,18.47
2018-09-08T17:59:04.724Z,17.70
2018-09-08T18:01:33.665Z,17.53
2018-09-08T18:04:02.628Z,12.70
2018-09-08T18:06:31.741Z,16.93
2018-09-08T18:09:00.718Z,15.30
2018-09-08T18:11:29.756Z,17.17
2018-09-08T18:13:58.764Z,16.37
2018-09-08T18:16:28.028Z,15.70
2018-09-08T18:18:56.964Z,16.17
2018-09-08T18:21:25.918Z,15.67
2018-09-08T18:23:54.859Z,15.70
2018-09-08T18:26:23.831Z,14.60
2018-09-08T18:28:52.863Z,14.27
2018-09-08T18:31:21.921Z,14.03
2018-09-08T18:33:50.849Z,12.73
2018-09-08T18:36:20.012Z,14.17
2018-09-08T18:38:49.016Z,13.87
2018-09-08T18:41:18.220Z,13.83
2018-09-08T18:43:47.137Z,13.80
2018-09-08T18:46:16.111Z,12.87
2018-09-08T18:48:45.054Z,13.07
2018-09-08T18:51:14.841Z,14.37
2018-09-08T18:53:43.913Z,14.20
2018-09-08T18:56:12.834Z,14.63
2018-09-08T18:58:41.833Z,13.63
2018-09-08T19:01:10.811Z,15.23
2018-09-08T19:03:39.828Z,14.00
2018-09-08T19:06:08.762Z,14.67
2018-09-08T19:08:43.372Z,15.73
2018-09-08T19:11:13.180Z,16.27
2018-09-08T19:13:42.944Z,15.20
2018-09-08T19:16:12.841Z,15.90
2018-09-08T19:18:41.799Z,16.10
2018-09-08T19:21:10.777Z,15.77
2018-09-08T19:23:39.747Z,14.80
2018-09-08T19:26:08.789Z,15.40
2018-09-08T19:28:37.702Z,14.90
2018-09-08T19:31:06.699Z,16.73
2018-09-08T19:33:35.799Z,15.97
2018-09-08T19:36:05.235Z,15.40
2018-09-08T19:38:34.213Z,14.27
2018-09-08T19:41:03.368Z,14.33
2018-09-08T19:43:32.312Z,15.33
2018-09-08T19:46:05.491Z,14.83
2018-09-08T19:48:34.553Z,14.03
2018-09-08T19:51:03.528Z,15.47
2018-09-08T19:53:37.507Z,14.47
2018-09-08T19:56:06.481Z,14.77
2018-09-08T19:58:40.488Z,13.87
2018-09-08T20:01:09.409Z,14.77
2018-09-08T20:03:38.448Z,14.07
2018-09-08T20:06:07.352Z,15.53
2018-09-08T20:08:36.463Z,14.60
2018-09-08T20:11:05.465Z,15.30
2018-09-08T20:13:34.451Z,16.63
2018-09-08T20:16:03.374Z,15.90
2018-09-08T20:18:31.115Z,15.60
2018-09-08T20:21:00.092Z,16.23
2018-09-08T20:23:29.015Z,15.73
2018-09-08T20:25:57.929Z,16.03
2018-09-08T20:28:26.899Z,16.97
2018-09-08T20:30:55.801Z,16.87
2018-09-08T20:33:24.696Z,15.43
2018-09-08T20:35:53.738Z,15.27
2018-09-08T20:38:22.805Z,14.80
2018-09-08T20:40:51.708Z,15.10
2018-09-08T20:43:20.606Z,14.57
2018-09-08T20:45:49.564Z,15.57
2018-09-08T20:48:18.561Z,15.60
2018-09-08T20:50:47.492Z,15.30
2018-09-08T20:53:16.404Z,16.33
2018-09-08T20:55:45.379Z,15.70
2018-09-08T20:58:14.345Z,15.87
2018-09-08T21:00:43.276Z,17.33
2018-09-08T21:03:12.300Z,15.67
2018-09-08T21:05:41.197Z,16.27
2018-09-08T21:08:10.138Z,15.60
2018-09-08T21:10:39.172Z,15.20
2018-09-08T21:13:08.207Z,16.23
2018-09-08T21:15:37.190Z,16.53
2018-09-08T21:18:06.104Z,16.30
2018-09-08T21:20:35.028Z,15.97
2018-09-08T21:23:03.960Z,17.20
2018-09-08T21:25:32.887Z,15.40
2018-09-08T21:28:01.842Z,16.17
2018-09-08T21:30:30.896Z,16.50
2018-09-08T21:32:59.796Z,17.13
2018-09-08T21:35:28.724Z,15.27
2018-09-08T21:37:57.712Z,16.97
2018-09-08T21:40:26.788Z,16.03
2018-09-08T21:42:55.704Z,17.63
2018-09-08T21:45:24.711Z,16.17
2018-09-08T21:47:53.708Z,15.40
2018-09-08T21:50:22.607Z,16.77
2018-09-08T21:52:51.603Z,16.20
2018-09-08T21:55:20.586Z,17.53
2018-09-08T21:57:49.477Z,15.77
2018-09-08T22:00:18.461Z,16.40
2018-09-08T22:02:47.425Z,17.80
2018-09-08T22:05:16.416Z,17.27
2018-09-08T22:07:45.402Z,17.43
2018-09-08T22:10:14.397Z,16.43
2018-09-08T22:12:43.388Z,16.50
2018-09-08T22:15:12.292Z,16.57
2018-09-08T22:17:41.232Z,16.90
2018-09-08T22:20:10.153Z,16.10
2018-09-08T22:22:39.119Z,15.60
2018-09-08T22:25:08.114Z,16.00
2018-09-08T22:27:37.089Z,16.47
2018-09-08T22:30:06.249Z,15.97
2018-09-08T22:32:35.164Z,15.57
2018-09-08T22:35:04.252Z,16.97
2018-09-08T22:37:33.136Z,17.20
2018-09-08T22:40:02.123Z,16.47
2018-09-08T22:42:31.109Z,16.00
2018-09-08T22:45:00.100Z,15.87
2018-09-08T22:47:29.103Z,15.80
2018-09-08T22:49:58.020Z,16.77
2018-09-08T22:52:26.924Z,16.67
2018-09-08T22:54:55.816Z,16.00
2018-09-08T22:57:24.847Z,16.73
2018-09-08T22:59:53.765Z,16.37
2018-09-08T23:02:22.732Z,15.20
2018-09-08T23:04:51.702Z,15.83
2018-09-08T23:07:20.664Z,16.47
2018-09-08T23:09:49.552Z,18.00
2018-09-08T23:12:18.484Z,17.33
2018-09-08T23:14:47.509Z,16.43
2018-09-08T23:17:16.474Z,16.17
2018-09-08T23:19:45.391Z,16.20
2018-09-08T23:22:14.312Z,16.30
2018-09-08T23:24:43.231Z,16.23
2018-09-08T23:27:12.161Z,16.03
2018-09-08T23:29:41.072Z,15.10
2018-09-08T23:32:10.093Z,14.80
2018-09-08T23:34:39.056Z,16.40
2018-09-08T23:37:08.088Z,16.20
2018-09-08T23:39:37.056Z,15.67
2018-09-08T23:42:05.967Z,16.40
2018-09-08T23:44:34.895Z,15.80
2018-09-08T23:47:03.894Z,15.43
2018-09-08T23:49:32.942Z,15.50
2018-09-08T23:52:01.887Z,15.07
2018-09-08T23:54:30.828Z,15.43
2018-09-08T23:56:59.759Z,15.93
2018-09-08T23:59:28.916Z,16.13
